createdAt,value
2023-01-18T00:01:51.460Z,2.86
2023-01-18T00:04:17.911Z,2.91
2023-01-18T00:06:44.354Z,2.93
2023-01-18T00:09:10.905Z,2.96
2023-01-18T00:11:37.334Z,2.98
2023-01-18T00:14:03.914Z,3.03
2023-01-18T00:16:30.610Z,3.03
2023-01-18T00:18:57.671Z,3.04
2023-01-18T00:21:24.756Z,3.03
2023-01-18T00:23:51.348Z,3.04
2023-01-18T00:26:17.849Z,3.06
2023-01-18T00:28:44.409Z,3.08
2023-01-18T00:31:11.666Z,3.13
2023-01-18T00:33:38.227Z,3.12
2023-01-18T00:36:04.900Z,3.10
2023-01-18T00:38:31.836Z,3.12
2023-01-18T00:40:58.363Z,3.14
2023-01-18T00:43:40.057Z,3.14
2023-01-18T00:46:08.197Z,3.15
2023-01-18T00:48:34.774Z,3.15
2023-01-18T00:51:01.510Z,3.09
2023-01-18T00:53:28.276Z,3.07
2023-01-18T00:55:54.721Z,3.08
2023-01-18T00:58:21.236Z,3.07
2023-01-18T01:00:51.706Z,3.07
2023-01-18T01:03:18.860Z,3.09
2023-01-18T01:06:03.933Z,3.09
2023-01-18T01:08:30.441Z,3.10
2023-01-18T01:11:05.871Z,3.08
2023-01-18T01:13:51.048Z,3.03
2023-01-18T01:16:36.009Z,3.01
2023-01-18T01:19:21.083Z,3.02
2023-01-18T01:22:05.904Z,3.05
2023-01-18T01:24:50.718Z,3.05
2023-01-18T01:27:17.509Z,3.04
2023-01-18T01:29:44.020Z,3.02
2023-01-18T01:32:10.548Z,3.02
2023-01-18T01:34:37.096Z,2.99
2023-01-18T01:37:04.160Z,3.03
2023-01-18T01:39:30.977Z,3.04
2023-01-18T01:41:57.582Z,2.99
2023-01-18T01:44:34.521Z,2.98
2023-01-18T01:47:06.789Z,2.93
2023-01-18T01:49:33.219Z,2.96
2023-01-18T01:52:04.015Z,3.00
2023-01-18T01:54:33.400Z,3.01
2023-01-18T01:57:18.272Z,3.02
2023-01-18T01:59:53.844Z,3.01
2023-01-18T02:02:20.416Z,2.97
2023-01-18T02:04:53.610Z,2.99
2023-01-18T02:07:20.921Z,2.98
2023-01-18T02:09:47.721Z,2.98
2023-01-18T02:12:14.674Z,2.97
2023-01-18T02:14:41.620Z,2.96
2023-01-18T02:17:28.397Z,2.91
2023-01-18T02:19:54.794Z,2.90
2023-01-18T02:22:24.239Z,2.85
2023-01-18T02:24:50.685Z,2.82
2023-01-18T02:27:20.091Z,2.82
2023-01-18T02:30:02.499Z,2.87
2023-01-18T02:32:44.525Z,2.91
2023-01-18T02:35:12.240Z,2.90
2023-01-18T02:37:42.618Z,2.90
2023-01-18T02:40:12.120Z,2.92
2023-01-18T02:42:57.603Z,2.95
2023-01-18T02:45:51.469Z,2.94
2023-01-18T02:48:20.300Z,2.86
2023-01-18T02:50:46.794Z,2.81
2023-01-18T02:53:14.729Z,2.70
2023-01-18T02:55:44.475Z,2.55
2023-01-18T02:58:14.944Z,2.48
2023-01-18T03:00:44.454Z,2.56
2023-01-18T03:03:12.133Z,2.61
2023-01-18T03:05:39.665Z,2.62
2023-01-18T03:08:10.985Z,2.62
2023-01-18T03:10:45.008Z,2.63
2023-01-18T03:13:15.376Z,2.65
2023-01-18T03:15:48.701Z,2.71
2023-01-18T03:18:31.644Z,2.72
2023-01-18T03:20:58.381Z,2.73
2023-01-18T03:23:39.869Z,2.75
2023-01-18T03:26:16.441Z,2.74
2023-01-18T03:29:03.373Z,2.78
2023-01-18T03:31:48.616Z,2.80
2023-01-18T03:34:17.680Z,2.83
2023-01-18T03:36:47.854Z,2.81
2023-01-18T03:39:23.873Z,2.82
2023-01-18T03:41:52.552Z,2.81
2023-01-18T03:44:35.011Z,2.80
2023-01-18T03:47:03.124Z,2.83
2023-01-18T03:49:30.170Z,2.81
2023-01-18T03:52:15.477Z,2.80
2023-01-18T03:54:41.916Z,2.80
2023-01-18T03:57:17.647Z,2.84
2023-01-18T03:59:44.824Z,2.86
2023-01-18T04:02:11.287Z,2.86
2023-01-18T04:04:37.747Z,2.86
2023-01-18T04:07:04.192Z,2.90
2023-01-18T04:09:30.673Z,2.93
2023-01-18T04:11:57.135Z,2.95
2023-01-18T04:14:23.563Z,2.90
2023-01-18T04:16:50.437Z,2.88
2023-01-18T04:19:17.133Z,2.86
2023-01-18T04:21:43.551Z,2.89
2023-01-18T04:24:11.383Z,2.89
2023-01-18T04:26:38.130Z,2.90
2023-01-18T04:29:04.712Z,2.93
2023-01-18T04:31:31.232Z,2.93
2023-01-18T04:33:57.754Z,2.91
2023-01-18T04:36:24.210Z,2.88
2023-01-18T04:38:54.307Z,2.92
2023-01-18T04:41:21.174Z,2.89
2023-01-18T04:43:47.640Z,2.88
2023-01-18T04:46:15.299Z,2.88
2023-01-18T04:48:42.419Z,2.87
2023-01-18T04:51:12.869Z,2.90
2023-01-18T04:53:40.186Z,2.86
2023-01-18T04:56:06.758Z,2.86
2023-01-18T04:58:33.312Z,2.84
2023-01-18T05:01:03.249Z,2.80
2023-01-18T05:03:29.731Z,2.81
2023-01-18T05:05:56.450Z,2.84
2023-01-18T05:08:23.084Z,2.86
2023-01-18T05:10:49.507Z,2.88
2023-01-18T05:13:15.939Z,2.90
2023-01-18T05:15:42.669Z,2.92
2023-01-18T05:18:09.109Z,2.92
2023-01-18T05:20:35.589Z,2.89
2023-01-18T05:23:11.121Z,2.87
2023-01-18T05:25:39.270Z,2.87
2023-01-18T05:28:06.414Z,2.86
2023-01-18T05:30:33.205Z,2.88
2023-01-18T05:33:01.314Z,2.84
2023-01-18T05:35:28.055Z,2.81
2023-01-18T05:37:54.509Z,2.82
2023-01-18T05:40:20.938Z,2.78
2023-01-18T05:42:47.434Z,2.76
2023-01-18T05:45:13.886Z,2.78
2023-01-18T05:47:41.339Z,2.82
2023-01-18T05:50:08.409Z,2.85
2023-01-18T05:52:34.901Z,2.88
2023-01-18T05:55:01.421Z,2.88
2023-01-18T05:57:27.850Z,2.91
2023-01-18T05:59:54.285Z,2.92
2023-01-18T06:02:20.728Z,2.92
2023-01-18T06:04:47.947Z,2.92
2023-01-18T06:07:15.110Z,2.93
2023-01-18T06:09:42.956Z,2.93
2023-01-18T06:12:10.188Z,2.93
2023-01-18T06:14:36.616Z,2.93
2023-01-18T06:17:03.140Z,2.93
2023-01-18T06:19:29.655Z,2.93
2023-01-18T06:21:56.152Z,2.91
2023-01-18T06:24:22.625Z,2.89
2023-01-18T06:26:49.075Z,2.90
2023-01-18T06:29:15.498Z,2.91
2023-01-18T06:31:41.963Z,2.90
2023-01-18T06:34:09.537Z,2.91
2023-01-18T06:36:36.829Z,2.94
2023-01-18T06:39:03.867Z,2.93
2023-01-18T06:41:30.664Z,2.93
2023-01-18T06:43:57.102Z,2.92
2023-01-18T06:46:23.541Z,2.90
2023-01-18T06:48:49.955Z,2.88
2023-01-18T06:51:16.339Z,2.89
2023-01-18T06:53:42.834Z,2.90
2023-01-18T06:56:10.500Z,2.93
2023-01-18T06:58:37.372Z,2.92
2023-01-18T07:01:04.398Z,2.90
2023-01-18T07:03:31.115Z,2.88
2023-01-18T07:05:58.797Z,2.89
2023-01-18T07:08:26.991Z,2.91
2023-01-18T07:10:54.024Z,2.91
2023-01-18T07:13:21.829Z,2.93
2023-01-18T07:15:56.662Z,2.95
2023-01-18T07:18:23.541Z,2.99
2023-01-18T07:20:57.502Z,3.02
2023-01-18T07:23:24.097Z,3.03
2023-01-18T07:25:57.322Z,3.05
2023-01-18T07:28:23.759Z,3.07
2023-01-18T07:30:50.197Z,3.07
2023-01-18T07:33:16.801Z,3.11
2023-01-18T07:35:43.259Z,3.13
2023-01-18T07:38:10.018Z,3.15
2023-01-18T07:40:36.457Z,3.19
2023-01-18T07:43:04.082Z,3.18
2023-01-18T07:45:30.529Z,3.18
2023-01-18T07:47:56.966Z,3.18
2023-01-18T07:50:23.457Z,3.18
2023-01-18T07:52:49.909Z,3.19
2023-01-18T07:55:16.425Z,3.20
2023-01-18T07:57:42.871Z,3.21
2023-01-18T08:00:11.194Z,3.19
2023-01-18T08:02:37.706Z,3.21
2023-01-18T08:05:04.910Z,3.18
2023-01-18T08:07:34.454Z,3.19
2023-01-18T08:10:00.957Z,3.23
2023-01-18T08:12:27.442Z,3.25
2023-01-18T08:14:53.874Z,3.27
2023-01-18T08:17:20.358Z,3.26
2023-01-18T08:19:46.828Z,3.28
2023-01-18T08:22:13.291Z,3.25
2023-01-18T08:24:39.748Z,3.24
2023-01-18T08:27:06.238Z,3.28
2023-01-18T08:29:32.674Z,3.26
2023-01-18T08:32:00.743Z,3.29
2023-01-18T08:34:27.283Z,3.32
2023-01-18T08:36:53.708Z,3.33
2023-01-18T08:39:20.713Z,3.33
2023-01-18T08:41:47.190Z,3.33
2023-01-18T08:44:13.803Z,3.33
2023-01-18T08:46:40.402Z,3.34
2023-01-18T08:49:06.954Z,3.35
2023-01-18T08:51:33.807Z,3.36
2023-01-18T08:54:00.783Z,3.38
2023-01-18T08:56:27.632Z,3.45
2023-01-18T08:58:54.230Z,3.44
2023-01-18T09:01:23.166Z,3.44
2023-01-18T09:03:50.615Z,3.48
2023-01-18T09:06:17.429Z,3.52
2023-01-18T09:08:46.413Z,3.56
2023-01-18T09:11:12.991Z,3.56
2023-01-18T09:13:54.591Z,3.61
2023-01-18T09:16:25.856Z,3.72
2023-01-18T09:18:52.577Z,3.77
2023-01-18T09:21:19.063Z,3.80
2023-01-18T09:23:45.648Z,3.83
2023-01-18T09:26:16.929Z,3.88
2023-01-18T09:28:44.895Z,3.93
2023-01-18T09:31:12.479Z,3.98
2023-01-18T09:33:40.300Z,4.00
2023-01-18T09:36:09.935Z,4.06
2023-01-18T09:38:37.285Z,4.12
2023-01-18T09:41:06.758Z,4.17
2023-01-18T09:43:41.298Z,4.21
2023-01-18T09:46:17.786Z,4.22
2023-01-18T09:48:44.769Z,4.23
2023-01-18T09:51:20.763Z,4.28
2023-01-18T09:53:56.081Z,4.33
2023-01-18T09:56:25.548Z,4.39
2023-01-18T09:59:10.523Z,4.45
2023-01-18T10:01:37.814Z,4.54
2023-01-18T10:04:08.263Z,4.59
2023-01-18T10:06:34.756Z,4.66
2023-01-18T10:09:06.937Z,4.69
2023-01-18T10:11:48.126Z,4.70
2023-01-18T10:14:33.312Z,4.70
2023-01-18T10:17:02.544Z,4.72
2023-01-18T10:19:30.738Z,4.76
2023-01-18T10:22:00.329Z,4.79
2023-01-18T10:24:45.587Z,4.76
2023-01-18T10:27:18.190Z,4.77
2023-01-18T10:29:54.012Z,4.79
2023-01-18T10:32:21.698Z,4.81
2023-01-18T10:34:49.521Z,4.81
2023-01-18T10:37:25.459Z,4.82
2023-01-18T10:39:57.482Z,4.84
2023-01-18T10:42:27.412Z,4.86
2023-01-18T10:44:53.805Z,4.91
2023-01-18T10:47:20.807Z,4.92
2023-01-18T10:49:48.526Z,4.99
2023-01-18T10:52:27.376Z,5.04
2023-01-18T10:54:58.307Z,5.13
2023-01-18T10:57:27.230Z,5.23
2023-01-18T10:59:55.047Z,5.26
2023-01-18T11:02:23.562Z,5.24
2023-01-18T11:04:58.374Z,5.24
2023-01-18T11:07:27.956Z,5.28
2023-01-18T11:09:55.680Z,5.30
2023-01-18T11:12:37.974Z,5.34
2023-01-18T11:15:13.577Z,5.43
2023-01-18T11:17:50.269Z,5.46
2023-01-18T11:20:18.401Z,5.46
2023-01-18T11:22:58.855Z,5.48
2023-01-18T11:25:26.548Z,5.52
2023-01-18T11:28:00.983Z,5.51
2023-01-18T11:30:27.708Z,5.50
2023-01-18T11:32:54.796Z,5.48
2023-01-18T11:35:28.518Z,5.48
2023-01-18T11:37:59.122Z,5.53
2023-01-18T11:40:27.962Z,5.54
2023-01-18T11:43:03.924Z,5.58
2023-01-18T11:45:36.357Z,5.62
2023-01-18T11:48:05.694Z,5.66
2023-01-18T11:50:39.040Z,5.66
2023-01-18T11:53:05.519Z,5.69
2023-01-18T11:55:35.231Z,5.72
2023-01-18T11:58:02.289Z,5.70
2023-01-18T12:00:32.011Z,5.68
2023-01-18T12:03:14.762Z,5.70
2023-01-18T12:05:45.903Z,5.75
2023-01-18T12:08:12.436Z,5.78
2023-01-18T12:11:05.040Z,5.78
2023-01-18T12:14:06.814Z,5.79
2023-01-18T12:16:35.989Z,5.81
2023-01-18T12:19:18.512Z,5.80
2023-01-18T12:22:03.725Z,5.78
2023-01-18T12:24:33.981Z,5.75
2023-01-18T12:27:05.908Z,5.75
2023-01-18T12:29:32.334Z,5.71
2023-01-18T12:32:01.574Z,5.74
2023-01-18T12:34:48.264Z,5.74
2023-01-18T12:37:34.351Z,5.74
2023-01-18T12:40:13.412Z,5.73
2023-01-18T12:42:45.961Z,5.70
2023-01-18T12:45:31.156Z,5.70
2023-01-18T12:48:15.575Z,5.71
2023-01-18T12:50:44.692Z,5.74
2023-01-18T12:53:14.564Z,5.77
2023-01-18T12:55:43.060Z,5.74
2023-01-18T12:58:14.330Z,5.72
2023-01-18T13:00:47.042Z,5.71
2023-01-18T13:03:15.893Z,5.77
2023-01-18T13:06:11.569Z,5.76
2023-01-18T13:08:39.431Z,5.71
2023-01-18T13:11:14.764Z,5.71
2023-01-18T13:13:42.486Z,5.63
2023-01-18T13:16:17.334Z,5.59
2023-01-18T13:18:58.122Z,5.59
2023-01-18T13:21:30.439Z,5.62
2023-01-18T13:24:15.203Z,5.66
2023-01-18T13:26:41.898Z,5.69
2023-01-18T13:29:20.381Z,5.70
2023-01-18T13:31:46.951Z,5.68
2023-01-18T13:34:25.622Z,5.68
2023-01-18T13:36:55.850Z,5.66
2023-01-18T13:39:31.591Z,5.63
2023-01-18T13:42:03.927Z,5.60
2023-01-18T13:44:37.955Z,5.58
2023-01-18T13:47:24.428Z,5.60
2023-01-18T13:49:50.909Z,5.61
2023-01-18T13:52:31.504Z,5.67
2023-01-18T13:55:01.767Z,5.70
2023-01-18T13:57:29.752Z,5.68
2023-01-18T13:59:56.412Z,5.67
2023-01-18T14:02:34.221Z,5.67
2023-01-18T14:05:03.774Z,5.65
2023-01-18T14:07:36.071Z,5.59
2023-01-18T14:10:03.580Z,5.56
2023-01-18T14:12:45.833Z,5.56
2023-01-18T14:15:24.042Z,5.61
2023-01-18T14:17:58.647Z,5.61
2023-01-18T14:20:34.701Z,5.53
2023-01-18T14:23:21.443Z,5.58
2023-01-18T14:25:56.773Z,5.60
2023-01-18T14:28:27.560Z,5.62
2023-01-18T14:30:56.867Z,5.61
2023-01-18T14:33:33.931Z,5.61
2023-01-18T14:36:01.667Z,5.59
2023-01-18T14:38:28.997Z,5.57
2023-01-18T14:40:57.688Z,5.56
2023-01-18T14:43:32.278Z,5.56
2023-01-18T14:46:01.939Z,5.56
2023-01-18T14:48:34.614Z,5.57
2023-01-18T14:51:01.740Z,5.52
2023-01-18T14:53:29.953Z,5.49
2023-01-18T14:56:02.372Z,5.46
2023-01-18T14:58:32.933Z,5.36
2023-01-18T15:00:59.557Z,5.25
2023-01-18T15:03:28.799Z,5.22
2023-01-18T15:06:04.611Z,5.19
2023-01-18T15:08:34.191Z,5.21
2023-01-18T15:11:02.618Z,5.15
2023-01-18T15:13:29.839Z,5.05
2023-01-18T15:16:01.374Z,4.97
2023-01-18T15:18:28.998Z,4.90
2023-01-18T15:20:55.514Z,4.93
2023-01-18T15:23:23.019Z,4.91
2023-01-18T15:25:53.157Z,4.87
2023-01-18T15:28:23.974Z,4.81
2023-01-18T15:30:51.855Z,4.75
2023-01-18T15:33:20.664Z,4.74
2023-01-18T15:35:49.337Z,4.69
2023-01-18T15:38:15.943Z,4.60
2023-01-18T15:40:52.719Z,4.56
2023-01-18T15:43:21.900Z,4.54
2023-01-18T15:45:52.366Z,4.52
2023-01-18T15:48:22.580Z,4.48
2023-01-18T15:50:49.648Z,4.46
2023-01-18T15:53:19.130Z,4.41
2023-01-18T15:55:52.496Z,4.37
2023-01-18T15:58:29.408Z,4.31
2023-01-18T16:01:08.007Z,4.27
2023-01-18T16:03:36.680Z,4.22
2023-01-18T16:06:08.405Z,4.19
2023-01-18T16:08:35.089Z,4.16
2023-01-18T16:11:01.715Z,4.11
2023-01-18T16:13:34.207Z,4.06
2023-01-18T16:16:06.634Z,3.98
2023-01-18T16:18:33.117Z,3.95
2023-01-18T16:21:01.420Z,3.86
2023-01-18T16:23:28.318Z,3.80
2023-01-18T16:25:59.627Z,3.78
2023-01-18T16:28:26.282Z,3.75
2023-01-18T16:30:53.393Z,3.68
2023-01-18T16:33:21.567Z,3.64
2023-01-18T16:35:48.762Z,3.58
2023-01-18T16:38:16.357Z,3.54
2023-01-18T16:40:45.058Z,3.49
2023-01-18T16:43:17.859Z,3.45
2023-01-18T16:45:45.388Z,3.39
2023-01-18T16:48:16.733Z,3.32
2023-01-18T16:50:43.270Z,3.28
2023-01-18T16:53:10.034Z,3.24
2023-01-18T16:55:36.729Z,3.23
2023-01-18T16:58:03.323Z,3.22
2023-01-18T17:00:33.616Z,3.24
2023-01-18T17:03:00.121Z,3.21
2023-01-18T17:05:28.164Z,3.16
2023-01-18T17:07:54.608Z,3.14
2023-01-18T17:10:38.070Z,3.13
2023-01-18T17:13:04.743Z,3.09
2023-01-18T17:15:34.528Z,3.08
2023-01-18T17:18:04.722Z,3.06
2023-01-18T17:20:31.336Z,3.03
2023-01-18T17:22:58.306Z,3.02
2023-01-18T17:25:25.313Z,2.98
2023-01-18T17:27:51.987Z,2.95
2023-01-18T17:30:20.551Z,2.94
2023-01-18T17:32:47.285Z,2.89
2023-01-18T17:35:15.563Z,2.86
2023-01-18T17:37:42.041Z,2.84
2023-01-18T17:40:17.778Z,2.81
2023-01-18T17:42:49.384Z,2.84
2023-01-18T17:45:15.869Z,2.85
2023-01-18T17:47:43.535Z,2.86
2023-01-18T17:50:17.241Z,2.88
2023-01-18T17:52:43.684Z,2.91
2023-01-18T17:55:11.614Z,2.86
2023-01-18T17:57:38.254Z,2.88
2023-01-18T18:00:06.074Z,2.91
2023-01-18T18:02:32.544Z,2.89
2023-01-18T18:04:59.363Z,2.84
2023-01-18T18:07:25.902Z,2.82
2023-01-18T18:09:56.827Z,2.80
2023-01-18T18:12:23.719Z,2.78
2023-01-18T18:14:53.267Z,2.79
2023-01-18T18:17:20.062Z,2.75
2023-01-18T18:19:46.499Z,2.73
2023-01-18T18:22:12.950Z,2.66
2023-01-18T18:24:39.631Z,2.63
2023-01-18T18:27:06.656Z,2.62
2023-01-18T18:29:33.270Z,2.60
2023-01-18T18:31:59.855Z,2.54
2023-01-18T18:34:26.358Z,2.48
2023-01-18T18:36:52.839Z,2.43
2023-01-18T18:39:19.294Z,2.39
2023-01-18T18:41:48.164Z,2.36
2023-01-18T18:44:14.902Z,2.31
2023-01-18T18:46:41.393Z,2.28
2023-01-18T18:49:07.960Z,2.30
2023-01-18T18:51:35.458Z,2.27
2023-01-18T18:54:02.385Z,2.26
2023-01-18T18:56:28.867Z,2.27
2023-01-18T18:58:55.450Z,2.28
2023-01-18T19:01:23.877Z,2.27
2023-01-18T19:03:51.734Z,2.26
2023-01-18T19:06:19.649Z,2.26
2023-01-18T19:08:46.451Z,2.20
2023-01-18T19:11:12.904Z,2.15
2023-01-18T19:13:39.629Z,2.10
2023-01-18T19:16:06.434Z,2.12
2023-01-18T19:18:33.090Z,2.13
2023-01-18T19:20:59.751Z,2.14
2023-01-18T19:23:26.223Z,2.15
2023-01-18T19:25:53.264Z,2.11
2023-01-18T19:28:19.748Z,2.09
2023-01-18T19:30:46.398Z,2.10
2023-01-18T19:33:13.528Z,2.10
2023-01-18T19:35:41.232Z,2.09
2023-01-18T19:38:08.045Z,2.11
2023-01-18T19:40:34.613Z,2.09
2023-01-18T19:43:01.530Z,2.07
2023-01-18T19:45:29.205Z,2.06
2023-01-18T19:47:56.666Z,2.00
2023-01-18T19:50:23.279Z,1.98
2023-01-18T19:52:50.370Z,1.98
2023-01-18T19:55:17.080Z,1.98
2023-01-18T19:57:43.751Z,1.98
2023-01-18T20:00:10.745Z,1.91
2023-01-18T20:02:40.947Z,1.83
2023-01-18T20:05:07.852Z,1.82
2023-01-18T20:07:34.315Z,1.81
2023-01-18T20:10:00.787Z,1.83
2023-01-18T20:12:31.247Z,1.80
2023-01-18T20:14:57.948Z,1.82
2023-01-18T20:17:24.480Z,1.85
2023-01-18T20:19:54.023Z,1.85
2023-01-18T20:22:21.273Z,1.83
2023-01-18T20:24:47.722Z,1.79
2023-01-18T20:27:16.238Z,1.76
2023-01-18T20:29:43.349Z,1.77
2023-01-18T20:32:16.065Z,1.76
2023-01-18T20:34:44.804Z,1.78
2023-01-18T20:37:12.026Z,1.74
2023-01-18T20:39:38.808Z,1.74
2023-01-18T20:42:05.383Z,1.73
2023-01-18T20:44:32.030Z,1.74
2023-01-18T20:46:58.490Z,1.69
2023-01-18T20:49:36.966Z,1.70
2023-01-18T20:52:04.938Z,1.74
2023-01-18T20:54:31.379Z,1.79
2023-01-18T20:56:58.946Z,1.77
2023-01-18T20:59:25.694Z,1.75
2023-01-18T21:01:53.085Z,1.74
2023-01-18T21:04:22.445Z,1.74
2023-01-18T21:06:49.902Z,1.73
2023-01-18T21:09:16.815Z,1.74
2023-01-18T21:11:43.351Z,1.78
2023-01-18T21:14:09.804Z,1.80
2023-01-18T21:16:36.293Z,1.80
2023-01-18T21:19:02.821Z,1.83
2023-01-18T21:21:31.724Z,1.87
2023-01-18T21:23:58.554Z,1.88
2023-01-18T21:26:25.252Z,1.88
2023-01-18T21:28:51.735Z,1.86
2023-01-18T21:31:18.324Z,1.90
2023-01-18T21:33:44.790Z,1.89
2023-01-18T21:36:15.416Z,1.93
2023-01-18T21:38:41.979Z,1.98
2023-01-18T21:41:27.234Z,2.00
2023-01-18T21:44:19.660Z,2.07
2023-01-18T21:46:46.974Z,2.10
2023-01-18T21:49:47.449Z,2.07
2023-01-18T21:52:38.877Z,2.06
2023-01-18T21:55:05.540Z,2.08
2023-01-18T21:57:31.992Z,2.08
2023-01-18T21:59:58.468Z,2.10
2023-01-18T22:02:25.050Z,2.12
2023-01-18T22:05:00.864Z,2.13
2023-01-18T22:07:28.223Z,2.13
2023-01-18T22:10:04.038Z,2.15
2023-01-18T22:12:32.655Z,2.15
2023-01-18T22:15:01.454Z,2.12
2023-01-18T22:17:27.907Z,2.10
2023-01-18T22:19:54.426Z,2.13
2023-01-18T22:22:20.862Z,2.13
2023-01-18T22:24:47.374Z,2.16
2023-01-18T22:27:13.798Z,2.20
2023-01-18T22:29:40.224Z,2.24
2023-01-18T22:32:06.669Z,2.27
2023-01-18T22:34:33.101Z,2.33
2023-01-18T22:36:59.529Z,2.34
2023-01-18T22:39:25.981Z,2.35
2023-01-18T22:41:52.439Z,2.39
2023-01-18T22:44:18.890Z,2.43
2023-01-18T22:46:45.382Z,2.47
2023-01-18T22:49:11.833Z,2.48
2023-01-18T22:51:38.291Z,2.52
2023-01-18T22:54:05.025Z,2.52
2023-01-18T22:56:32.034Z,2.52
2023-01-18T22:58:58.519Z,2.50
2023-01-18T23:01:26.606Z,2.47
2023-01-18T23:03:54.904Z,2.44
2023-01-18T23:06:21.824Z,2.46
2023-01-18T23:08:48.366Z,2.47
2023-01-18T23:11:19.033Z,2.43
2023-01-18T23:14:07.509Z,2.43
2023-01-18T23:16:52.463Z,2.48
2023-01-18T23:19:19.169Z,2.55
2023-01-18T23:21:45.667Z,2.55
2023-01-18T23:24:12.364Z,2.55
2023-01-18T23:26:38.818Z,2.58
2023-01-18T23:29:05.571Z,2.60
2023-01-18T23:31:32.367Z,2.61
2023-01-18T23:33:58.890Z,2.59
2023-01-18T23:36:25.327Z,2.57
2023-01-18T23:39:10.164Z,2.56
2023-01-18T23:41:55.140Z,2.58
2023-01-18T23:44:40.139Z,2.61
2023-01-18T23:47:25.344Z,2.61
2023-01-18T23:50:10.243Z,2.58
2023-01-18T23:52:55.057Z,2.54
2023-01-18T23:55:21.528Z,2.51
2023-01-18T23:57:48.073Z,2.49
